Terminal Aerodrome Forecast
Issued by NWS Billings, MT

Home | Current Version | Previous Version | Text Only | Print | Product List | Glossary On
Versions: 1 2 3 4 5 6 7 8 9 10 11 12 13 14 15 16 17 18 19 20 21 22 23 24 25 26 27 28 29 30 31 32 33 34 35 36 37 38 39 40 41 42 43 44 45 46
645
FTUS45 KBYZ 220057 AAA
TAFMLS
TAF AMD
KMLS 220057Z 2201/2224 27006KT P6SM SKC
     FM220400 24005KT P6SM FEW070
     FM220800 23004KT P6SM VCFG SKC
     FM221400 25007KT P6SM SCT250=

USA.gov is the U.S. government's official web portal to all federal, state and local government web resources and services.